Terminal Aerodrome Forecast
Issued by NWS

Home | Current Version | Previous Version | Text Only | Print | Product List | Glossary On
Versions: 1 2 3 4 5 6 7 8 9 10 11 12 13 14 15 16 17 18 19
341
FTUS43 KAPX 200537
TAFMBL
TAF
KMBL 200537Z 2006/2106 20005KT P6SM SKC
     FM201700 23010KT P6SM FEW200
     FM202100 20011KT P6SM SCT200
     FM210100 19007KT P6SM FEW200
     FM210500 21006KT P6SM SCT150 WS015/23030KT=

USA.gov is the U.S. government's official web portal to all federal, state and local government web resources and services.